Time;durP1;ratioP1;P1;durP2;ratioP2;P2;SDS_P1;SDS_P2;PMS_P1;PMS_P2;Temp;Humidity;BMP_temperature;BMP_pressure;BME280_temperature;BME280_humidity;BME280_pressure;Samples;Min_cycle;Max_cycle;Signal;HPM_P1;HPM_P2
2023/05/11 00:00:26;;;;;;;;;4.00;2.75;;;;;12.47;81.24;101330.72;146617;601;46012;-70
2023/05/11 00:03:19;;;;;;;;;3.00;3.00;;;;;12.52;81.19;101327.47;146620;594;46020;-71
2023/05/11 00:06:12;;;;;;;;;4.75;3.50;;;;;12.53;80.86;101332.75;146617;569;46016;-70
2023/05/11 00:09:05;;;;;;;;;5.00;4.00;;;;;12.54;80.92;101331.03;146617;586;46012;-70
2023/05/11 00:12:01;;;;;;;;;4.25;2.50;;;;;12.51;80.56;101336.97;146617;570;46016;-70
2023/05/11 00:15:08;;;;;;;;;4.75;4.25;;;;;12.39;80.00;101339.81;146620;580;46010;-71
2023/05/11 00:18:05;;;;;;;;;3.75;3.75;;;;;12.33;80.30;101336.00;146620;585;46012;-70
2023/05/11 00:21:09;;;;;;;;;4.25;4.25;;;;;12.31;80.55;101343.72;146621;566;46010;-70
2023/05/11 00:24:01;;;;;;;;;5.00;3.50;;;;;12.33;80.95;101343.78;146618;566;46915;-71
2023/05/11 00:27:01;;;;;;;;;3.00;3.00;;;;;12.28;80.72;101337.47;146620;564;46020;-70
2023/05/11 00:30:06;;;;;;;;;;;;;;;;;;;;;
2023/05/11 00:33:03;;;;;;;;;2.00;1.00;;;;;12.23;80.64;101345.00;146620;622;46011;-70
2023/05/11 00:35:59;;;;;;;;;3.00;3.00;;;;;12.24;80.74;101344.19;146619;591;46017;-71
2023/05/11 00:39:17;;;;;;;;;3.75;2.75;;;;;12.24;80.55;101341.59;146607;699;46020;-71
2023/05/11 00:42:25;;;;;;;;;5.00;4.00;;;;;12.28;80.86;101335.75;146616;661;46914;-70
2023/05/11 00:45:26;;;;;;;;;3.50;3.50;;;;;12.31;80.54;101346.31;146618;580;47010;-72
2023/05/11 00:48:19;;;;;;;;;2.50;2.00;;;;;12.32;80.31;101335.09;146614;622;46014;-72
2023/05/11 00:51:38;;;;;;;;;3.25;3.25;;;;;12.30;80.12;101338.41;146620;668;46012;-72
2023/05/11 00:54:33;;;;;;;;;3.75;3.75;;;;;12.30;80.67;101343.62;146617;699;46016;-73
2023/05/11 00:57:34;;;;;;;;;2.75;2.75;;;;;12.30;80.60;101341.91;146621;594;46021;-73
2023/05/11 01:00:43;;;;;;;;;4.00;4.00;;;;;12.32;80.72;101335.09;146619;693;46012;-74
2023/05/11 01:03:53;;;;;;;;;2.75;2.75;;;;;12.44;81.12;101342.66;146622;629;47026;-72
2023/05/11 01:07:09;;;;;;;;;6.00;5.00;;;;;12.53;80.83;101339.69;146619;577;46016;-73
2023/05/11 01:10:42;;;;;;;;;5.00;4.00;;;;;12.60;80.71;101333.97;146607;662;46020;-75
2023/05/11 01:14:05;;;;;;;;;4.00;3.00;;;;;11.38;80.38;101108.28;146617;564;47013;-75
2023/05/11 01:17:34;;;;;;;;;5.00;4.00;;;;;12.01;80.42;101212.97;146621;583;46010;-72
2023/05/11 01:20:39;;;;;;;;;;;;;;;;;;;;;
2023/05/11 01:24:04;;;;;;;;;5.25;5.00;;;;;12.70;80.09;101321.50;146618;566;46020;-71
2023/05/11 01:27:30;;;;;;;;;3.00;3.00;;;;;11.70;79.34;101161.06;146617;679;46016;-73
2023/05/11 01:30:46;;;;;;;;;5.00;4.00;;;;;12.58;79.87;101323.47;146621;694;46020;-72
2023/05/11 01:34:05;;;;;;;;;5.75;4.00;;;;;12.56;79.95;101316.44;146613;640;46016;-74
2023/05/11 01:37:25;;;;;;;;;5.50;4.00;;;;;12.55;79.94;101315.50;146620;572;46020;-74
2023/05/11 01:40:29;;;;;;;;;3.75;3.50;;;;;12.57;80.32;101320.81;146615;569;46016;-74
2023/05/11 01:43:31;;;;;;;;;5.50;3.50;;;;;12.56;79.70;101317.31;146607;582;46020;-73
2023/05/11 01:46:38;;;;;;;;;7.25;4.50;;;;;12.51;79.49;101317.88;146617;612;46016;-73
2023/05/11 01:49:50;;;;;;;;;2.25;2.25;;;;;12.45;79.77;101310.63;146621;589;46020;-73
2023/05/11 01:52:51;;;;;;;;;4.00;3.75;;;;;12.46;80.32;101308.13;146618;652;46014;-73
2023/05/11 01:55:59;;;;;;;;;1.00;1.00;;;;;11.90;80.24;101202.03;146621;615;46020;-72
2023/05/11 01:59:00;;;;;;;;;3.00;3.00;;;;;11.90;80.52;101189.03;146617;654;46016;-72
2023/05/11 02:01:55;;;;;;;;;4.00;3.75;;;;;12.57;80.74;101287.87;146620;650;46020;-72
2023/05/11 02:04:53;;;;;;;;;5.25;4.00;;;;;12.58;81.03;101284.44;146615;575;46916;-72
2023/05/11 02:07:57;;;;;;;;;5.25;5.25;;;;;12.58;80.57;101280.97;146622;566;47010;-74
2023/05/11 02:11:10;;;;;;;;;5.75;4.75;;;;;12.54;80.45;101290.31;146616;669;46016;-71
2023/05/11 02:14:06;;;;;;;;;5.75;3.50;;;;;12.54;80.58;101281.63;146606;630;46021;-72
2023/05/11 02:17:37;;;;;;;;;4.50;3.75;;;;;11.88;79.90;101161.19;146615;697;46016;-71
2023/05/11 02:20:46;;;;;;;;;3.25;2.75;;;;;12.60;80.67;101269.81;146620;722;47010;-71
2023/05/11 02:23:48;;;;;;;;;5.75;3.75;;;;;12.64;81.04;101274.34;146617;587;46016;-73
2023/05/11 02:26:46;;;;;;;;;3.75;3.75;;;;;12.68;80.94;101271.13;146622;570;46011;-73
2023/05/11 02:29:48;;;;;;;;;5.75;4.00;;;;;12.70;80.86;101271.19;146616;701;46016;-74
2023/05/11 02:32:47;;;;;;;;;3.25;2.50;;;;;12.73;82.04;101281.75;146619;698;46010;-73
2023/05/11 02:35:49;;;;;;;;;4.00;3.25;;;;;12.77;81.25;101273.28;146617;644;46012;-73
2023/05/11 02:39:20;;;;;;;;;4.00;4.00;;;;;12.79;80.87;101278.56;146622;681;46010;-72
2023/05/11 02:42:37;;;;;;;;;2.75;2.75;;;;;12.82;80.79;101277.00;146617;590;46016;-72
2023/05/11 02:45:34;;;;;;;;;3.00;3.00;;;;;12.83;81.09;101273.59;146618;598;46010;-73
2023/05/11 02:48:41;;;;;;;;;3.75;3.75;;;;;12.85;80.80;101271.09;146616;637;46017;-72
2023/05/11 02:51:43;;;;;;;;;4.50;4.50;;;;;12.84;80.50;101284.91;146620;681;46020;-71
2023/05/11 02:54:42;;;;;;;;;5.00;4.75;;;;;12.81;80.95;101270.03;146618;725;46016;-71
2023/05/11 02:57:38;;;;;;;;;7.00;5.00;;;;;12.78;80.78;101275.09;146621;573;46021;-71
2023/05/11 03:00:45;;;;;;;;;8.75;4.75;;;;;12.74;81.24;101272.22;146619;682;46012;-71
2023/05/11 03:03:41;;;;;;;;;4.00;4.00;;;;;12.73;81.21;101268.75;146621;606;46021;-70
2023/05/11 03:06:34;;;;;;;;;5.25;4.00;;;;;12.76;81.96;101276.69;146617;589;47012;-70
2023/05/11 03:09:31;;;;;;;;;5.75;4.00;;;;;12.83;82.25;101291.81;146623;665;47010;-70
2023/05/11 03:12:38;;;;;;;;;4.50;3.00;;;;;12.90;82.03;101291.31;146618;569;46017;-72
2023/05/11 03:15:54;;;;;;;;;6.25;4.75;;;;;12.96;82.07;101293.34;146617;565;46020;-72
2023/05/11 03:18:59;;;;;;;;;;;;;;;;;;;;;
2023/05/11 03:21:56;;;;;;;;;6.50;5.75;;;;;12.98;81.84;101304.72;146618;598;46022;-72
2023/05/11 03:24:55;;;;;;;;;6.00;6.00;;;;;12.98;81.62;101306.44;146617;697;46017;-72
2023/05/11 03:28:05;;;;;;;;;6.00;5.50;;;;;12.97;82.26;101305.53;146617;590;46020;-73
2023/05/11 03:31:00;;;;;;;;;4.75;4.75;;;;;12.96;82.34;101295.97;146610;616;46016;-72
2023/05/11 03:34:02;;;;;;;;;4.75;4.50;;;;;12.94;82.51;101306.28;146621;564;46021;-73
2023/05/11 03:37:08;;;;;;;;;4.50;3.00;;;;;12.92;82.41;101297.47;146617;653;46016;-74
2023/05/11 03:40:09;;;;;;;;;7.00;6.00;;;;;12.92;82.45;101304.41;146620;708;46020;-75
2023/05/11 03:43:34;;;;;;;;;6.00;6.00;;;;;11.65;81.89;101087.16;146618;583;46012;-76
2023/05/11 03:46:44;;;;;;;;;7.00;4.25;;;;;12.94;82.44;101308.88;146602;630;47913;-77
2023/05/11 03:49:41;;;;;;;;;5.00;5.00;;;;;12.98;82.24;101309.03;146617;564;46017;-76
2023/05/11 03:52:33;;;;;;;;;5.50;5.50;;;;;12.99;82.41;101318.63;146619;634;46020;-76
2023/05/11 03:55:27;;;;;;;;;6.75;6.00;;;;;13.03;82.65;101317.97;146615;584;46012;-76
2023/05/11 03:58:21;;;;;;;;;6.25;6.25;;;;;13.06;82.79;101311.22;146618;591;46010;-74
2023/05/11 04:01:18;;;;;;;;;5.25;4.00;;;;;13.16;82.73;101318.66;146617;605;46918;-78
2023/05/11 04:04:13;;;;;;;;;9.50;9.00;;;;;13.23;82.88;101319.84;146617;683;47012;-76
2023/05/11 04:07:05;;;;;;;;;6.25;6.25;;;;;13.29;82.96;101322.81;146620;641;46014;-72
2023/05/11 04:10:04;;;;;;;;;8.50;7.50;;;;;13.32;82.71;101316.84;146620;594;46021;-71
2023/05/11 04:12:58;;;;;;;;;7.00;7.00;;;;;13.37;82.47;101324.09;146618;619;46017;-71
2023/05/11 04:15:50;;;;;;;;;7.00;5.00;;;;;13.38;82.15;101323.25;146609;653;46034;-71
2023/05/11 04:18:52;;;;;;;;;8.50;7.25;;;;;13.43;81.97;101330.41;146616;632;46017;-72
2023/05/11 04:21:49;;;;;;;;;5.00;5.00;;;;;13.44;82.21;101333.09;146619;684;48020;-73
2023/05/11 04:24:44;;;;;;;;;8.00;5.75;;;;;13.44;82.08;101340.91;146618;564;46918;-70
2023/05/11 04:27:47;;;;;;;;;5.75;5.50;;;;;13.46;82.34;101344.50;146621;576;46020;-72
2023/05/11 04:30:51;;;;;;;;;11.75;11.75;;;;;13.43;81.76;101341.75;146617;586;47014;-73
2023/05/11 04:33:46;;;;;;;;;23.75;22.00;;;;;13.47;81.78;101343.66;146615;603;46010;-74
2023/05/11 04:36:45;;;;;;;;;7.50;7.50;;;;;13.51;82.16;101347.31;146611;577;46012;-73
2023/05/11 04:39:55;;;;;;;;;9.50;7.00;;;;;13.56;81.92;101348.44;146620;623;46021;-76
2023/05/11 04:42:51;;;;;;;;;8.75;6.00;;;;;13.14;82.29;101264.72;146617;647;46012;-71
2023/05/11 04:45:58;;;;;;;;;10.00;8.00;;;;;13.69;82.22;101348.22;146610;663;46020;-70
2023/05/11 04:48:58;;;;;;;;;6.75;6.75;;;;;13.75;82.65;101343.28;146618;696;46017;-70
2023/05/11 04:52:10;;;;;;;;;7.75;6.75;;;;;12.60;81.67;101131.94;146620;566;46020;-70
2023/05/11 04:55:06;;;;;;;;;7.50;7.00;;;;;13.92;82.33;101353.62;146613;710;46016;-69
2023/05/11 04:58:11;;;;;;;;;6.67;6.67;;;;;13.95;82.45;101344.22;146624;591;46010;-71
2023/05/11 05:01:11;;;;;;;;;11.33;9.33;;;;;14.02;82.32;101350.66;146611;634;47916;-70
2023/05/11 05:04:06;;;;;;;;;9.50;7.50;;;;;14.06;81.72;101349.97;146622;731;46010;-70
2023/05/11 05:07:08;;;;;;;;;7.75;7.00;;;;;14.11;81.40;101348.44;146618;588;46016;-70
2023/05/11 05:10:02;;;;;;;;;8.00;7.00;;;;;14.16;81.63;101356.50;146620;599;46021;-74
2023/05/11 05:12:59;;;;;;;;;7.00;7.00;;;;;14.22;81.22;101351.56;146615;665;46016;-71
2023/05/11 05:15:56;;;;;;;;;12.50;11.25;;;;;14.24;80.42;101349.94;146606;625;46020;-70
2023/05/11 05:18:49;;;;;;;;;11.00;10.00;;;;;14.25;79.53;101359.53;146609;619;46012;-70
2023/05/11 05:21:53;;;;;;;;;13.00;10.25;;;;;14.23;79.49;101355.97;146615;575;46010;-71
2023/05/11 05:24:47;;;;;;;;;11.75;10.00;;;;;14.22;79.46;101362.91;146608;595;47016;-70
2023/05/11 05:27:41;;;;;;;;;14.75;10.50;;;;;14.24;79.44;101355.16;146613;674;47010;-70
2023/05/11 05:30:38;;;;;;;;;12.25;11.25;;;;;14.27;79.63;101357.91;146611;663;47012;-70
2023/05/11 05:33:36;;;;;;;;;12.50;10.75;;;;;14.32;79.65;101353.78;146613;616;46021;-70
2023/05/11 05:36:53;;;;;;;;;15.75;11.50;;;;;14.36;79.47;101347.91;146608;648;46016;-70
2023/05/11 05:39:51;;;;;;;;;13.00;11.25;;;;;14.42;79.48;101349.88;146611;613;46012;-70
2023/05/11 05:42:46;;;;;;;;;8.50;8.50;;;;;14.46;80.06;101346.59;146612;659;46012;-70
2023/05/11 05:45:49;;;;;;;;;9.75;8.75;;;;;14.47;79.70;101346.66;146608;619;46020;-70
2023/05/11 05:48:54;;;;;;;;;13.25;11.00;;;;;13.32;79.71;101129.34;146617;724;46016;-70
2023/05/11 05:51:50;;;;;;;;;10.25;8.75;;;;;14.62;79.87;101343.00;146615;571;46020;-71
2023/05/11 05:54:45;;;;;;;;;10.75;10.75;;;;;14.66;79.80;101348.41;146616;638;46029;-71
2023/05/11 05:58:01;;;;;;;;;11.00;9.50;;;;;14.73;79.47;101344.34;146615;630;46010;-71
2023/05/11 06:00:57;;;;;;;;;9.00;8.25;;;;;14.78;79.41;101343.72;146615;722;46016;-71
2023/05/11 06:04:03;;;;;;;;;13.75;12.00;;;;;14.82;78.61;101343.88;146621;634;46020;-72
2023/05/11 06:06:59;;;;;;;;;15.25;12.50;;;;;14.84;78.30;101347.44;146610;569;46918;-71
2023/05/11 06:10:04;;;;;;;;;15.00;12.00;;;;;14.84;77.51;101350.94;146617;653;46021;-72
2023/05/11 06:12:59;;;;;;;;;14.00;12.00;;;;;14.86;77.64;101346.69;146611;629;46016;-72
2023/05/11 06:16:02;;;;;;;;;14.00;12.00;;;;;14.85;77.24;101350.09;146613;586;46010;-72
2023/05/11 06:19:02;;;;;;;;;13.25;12.50;;;;;14.86;77.47;101354.53;146611;579;46016;-71
2023/05/11 06:22:11;;;;;;;;;;;;;;;;;;;;;
2023/05/11 06:25:20;;;;;;;;;15.00;11.50;;;;;14.94;77.52;101360.97;146609;577;46917;-72
2023/05/11 06:28:28;;;;;;;;;;;;;;;;;;;;;
2023/05/11 06:31:31;;;;;;;;;15.25;12.00;;;;;14.98;76.92;101362.91;146612;576;46017;-71
2023/05/11 06:34:26;;;;;;;;;14.00;14.00;;;;;15.00;77.12;101365.56;146609;612;46020;-72
2023/05/11 06:37:23;;;;;;;;;10.00;8.00;;;;;15.00;77.28;101376.00;146611;582;46014;-72
2023/05/11 06:40:20;;;;;;;;;12.75;12.00;;;;;15.00;76.97;101376.91;146620;639;46010;-72
2023/05/11 06:43:15;;;;;;;;;13.25;9.75;;;;;14.99;77.88;101374.22;146610;603;46918;-71
2023/05/11 06:46:15;;;;;;;;;7.25;5.25;;;;;15.02;77.00;101374.38;146608;575;46021;-71
2023/05/11 06:49:11;;;;;;;;;11.00;8.75;;;;;15.05;76.68;101377.13;146616;650;46016;-71
2023/05/11 06:52:08;;;;;;;;;7.00;6.25;;;;;15.08;77.05;101374.62;146621;694;47010;-74
2023/05/11 06:55:19;;;;;;;;;6.00;5.25;;;;;15.15;76.92;101366.22;146616;569;46017;-70
2023/05/11 06:58:19;;;;;;;;;8.00;8.00;;;;;15.23;76.81;101369.16;146621;563;46020;-71
2023/05/11 07:01:15;;;;;;;;;8.00;7.67;;;;;15.29;76.55;101360.69;146619;579;46017;-72
2023/05/11 07:04:13;;;;;;;;;8.00;7.75;;;;;15.31;75.28;101359.94;146621;595;46020;-71
2023/05/11 07:07:10;;;;;;;;;7.75;7.75;;;;;15.25;74.06;101359.66;146613;632;46016;-70
2023/05/11 07:10:06;;;;;;;;;5.67;5.00;;;;;15.14;74.00;101367.06;146622;610;46010;-71
2023/05/11 07:13:05;;;;;;;;;7.33;6.33;;;;;15.08;74.46;101366.78;146618;589;46012;-74
2023/05/11 07:16:07;;;;;;;;;7.50;6.50;;;;;15.06;76.33;101370.16;146615;593;47010;-76
2023/05/11 07:19:02;;;;;;;;;10.00;5.75;;;;;15.11;77.13;101368.63;146617;623;46023;-76
2023/05/11 07:22:07;;;;;;;;;5.25;3.00;;;;;15.22;78.33;101376.09;146619;673;46021;-77
2023/05/11 07:25:11;;;;;;;;;6.25;6.00;;;;;15.35;77.84;101368.78;146617;626;46017;-71
2023/05/11 07:28:13;;;;;;;;;7.00;6.00;;;;;15.47;76.35;101379.75;146620;594;46020;-71
2023/05/11 07:31:13;;;;;;;;;7.50;5.75;;;;;15.48;75.17;101372.00;146616;566;46013;-70
2023/05/11 07:34:06;;;;;;;;;7.00;5.00;;;;;15.47;74.15;101377.13;146622;578;47010;-72
2023/05/11 07:37:00;;;;;;;;;6.50;5.50;;;;;15.39;72.96;101375.91;146617;570;46918;-71
2023/05/11 07:40:04;;;;;;;;;7.00;6.67;;;;;15.29;74.32;101382.47;146622;655;46010;-71
2023/05/11 07:42:57;;;;;;;;;5.00;5.00;;;;;15.28;75.36;101382.41;146616;563;46016;-71
2023/05/11 07:45:49;;;;;;;;;5.25;5.25;;;;;15.28;75.84;101374.59;146618;680;47010;-71
2023/05/11 07:48:45;;;;;;;;;9.00;7.25;;;;;15.36;75.22;101381.03;146613;592;46016;-73
2023/05/11 07:51:40;;;;;;;;;6.50;6.00;;;;;15.42;74.90;101378.66;146621;620;46010;-73
2023/05/11 07:54:37;;;;;;;;;6.00;5.00;;;;;15.46;74.59;101386.69;146618;575;46016;-72
2023/05/11 07:57:36;;;;;;;;;6.67;5.33;;;;;15.51;73.87;101383.38;146620;634;46010;-72
2023/05/11 08:00:34;;;;;;;;;4.00;4.00;;;;;15.51;73.71;101378.16;146617;583;46017;-71
2023/05/11 08:03:33;;;;;;;;;2.33;2.33;;;;;15.53;73.64;101390.47;146624;598;46010;-74
2023/05/11 08:06:36;;;;;;;;;3.00;3.00;;;;;15.57;73.33;101391.47;146617;566;46015;-73
2023/05/11 08:09:29;;;;;;;;;3.33;3.33;;;;;15.58;73.53;101391.56;146619;669;47020;-74
2023/05/11 08:12:32;;;;;;;;;5.00;3.33;;;;;15.04;72.81;101302.19;146620;609;46016;-71
2023/05/11 08:15:27;;;;;;;;;5.33;3.00;;;;;15.57;72.72;101392.38;146616;640;46010;-72
2023/05/11 08:18:32;;;;;;;;;5.00;4.00;;;;;15.59;72.81;101384.59;146618;571;46916;-72
2023/05/11 08:21:31;;;;;;;;;4.33;3.00;;;;;15.64;72.83;101388.31;146620;630;47020;-72
2023/05/11 08:24:26;;;;;;;;;6.67;6.00;;;;;15.72;73.82;101393.88;146621;677;46012;-72
2023/05/11 08:27:34;;;;;;;;;4.67;3.67;;;;;15.80;73.77;101389.87;146622;654;46020;-71
2023/05/11 08:30:33;;;;;;;;;4.00;2.67;;;;;15.87;73.57;101400.63;146622;611;46017;-72
2023/05/11 08:33:26;;;;;;;;;5.33;5.33;;;;;15.94;73.25;101388.66;146624;565;46010;-71
2023/05/11 08:36:29;;;;;;;;;6.00;6.00;;;;;16.02;73.41;101381.16;146616;596;46015;-72
2023/05/11 08:39:21;;;;;;;;;5.00;3.50;;;;;16.10;73.31;101391.06;146623;569;46010;-72
2023/05/11 08:42:22;;;;;;;;;4.67;3.67;;;;;16.19;73.01;101394.88;146620;572;46014;-72
2023/05/11 08:45:27;;;;;;;;;6.67;5.67;;;;;16.19;72.07;101395.75;146704;565;45023;-72
2023/05/11 08:48:24;;;;;;;;;2.67;2.00;;;;;16.24;72.46;101398.56;146620;609;46016;-71
2023/05/11 08:51:21;;;;;;;;;5.67;4.33;;;;;16.25;72.13;101401.25;146615;568;47012;-72
2023/05/11 08:54:33;;;;;;;;;5.33;4.67;;;;;16.27;71.37;101389.13;146609;577;46017;-73
2023/05/11 08:57:54;;;;;;;;;2.67;2.67;;;;;16.20;71.32;101392.34;146619;573;46020;-72
2023/05/11 09:00:36;;;;;;;;;4.00;4.00;;;;;16.22;71.61;101395.87;146705;564;46015;-72
2023/05/11 09:03:42;;;;;;;;;4.33;4.00;;;;;16.29;72.33;101389.16;146619;638;46943;-71
2023/05/11 09:06:48;;;;;;;;;9.00;5.00;;;;;16.34;71.78;101382.37;146621;563;46010;-72
2023/05/11 09:09:48;;;;;;;;;3.67;3.67;;;;;16.35;71.07;101382.47;146616;596;46918;-72
2023/05/11 09:12:51;;;;;;;;;18.25;13.00;;;;;16.36;71.93;101383.34;146622;601;46010;-71
2023/05/11 09:15:54;;;;;;;;;5.00;4.00;;;;;16.35;70.85;101374.62;146612;611;46016;-71
2023/05/11 09:19:05;;;;;;;;;8.50;8.00;;;;;16.34;71.29;101379.78;146624;569;46010;-72
2023/05/11 09:21:57;;;;;;;;;8.50;8.00;;;;;16.31;71.81;101377.94;146618;572;46020;-71
2023/05/11 09:24:59;;;;;;;;;9.75;9.75;;;;;16.26;72.79;101374.25;146624;656;46030;-72
2023/05/11 09:28:04;;;;;;;;;6.75;6.25;;;;;16.15;72.58;101362.47;146618;581;47016;-72
2023/05/11 09:31:05;;;;;;;;;4.00;3.33;;;;;16.18;71.75;101373.06;146621;653;47010;-72
2023/05/11 09:34:33;;;;;;;;;5.00;3.33;;;;;16.17;71.14;101374.78;146617;606;46016;-71
2023/05/11 09:37:33;;;;;;;;;9.00;7.00;;;;;16.15;70.80;101372.94;146623;614;46015;-72
2023/05/11 09:40:30;;;;;;;;;6.67;5.67;;;;;16.13;70.43;101371.97;146616;563;46012;-71
2023/05/11 09:43:36;;;;;;;;;7.00;6.67;;;;;16.12;71.72;101373.72;146624;578;46010;-72
2023/05/11 09:46:36;;;;;;;;;6.00;5.00;;;;;16.16;71.83;101364.25;146620;578;46014;-72
2023/05/11 09:49:33;;;;;;;;;5.00;5.00;;;;;16.19;71.48;101358.25;146622;576;46020;-71
2023/05/11 09:52:29;;;;;;;;;8.00;6.33;;;;;16.24;71.75;101352.37;146617;576;46017;-71
2023/05/11 09:55:34;;;;;;;;;6.00;5.00;;;;;16.29;71.69;101355.13;146624;636;46020;-71
2023/05/11 09:58:29;;;;;;;;;9.00;8.75;;;;;16.33;71.37;101355.34;146614;690;47915;-72
2023/05/11 10:01:37;;;;;;;;;8.00;8.00;;;;;16.41;71.67;101355.59;146622;589;46021;-72
2023/05/11 10:04:41;;;;;;;;;8.33;5.67;;;;;16.45;70.91;101354.00;146619;666;46016;-72
2023/05/11 10:07:45;;;;;;;;;4.67;4.33;;;;;16.47;70.25;101347.97;146626;612;46010;-72
2023/05/11 10:10:47;;;;;;;;;7.00;5.33;;;;;16.50;70.40;101347.22;146619;569;46014;-72
2023/05/11 10:13:46;;;;;;;;;6.00;6.00;;;;;16.54;71.22;101351.72;146625;692;46010;-72
2023/05/11 10:17:03;;;;;;;;;7.33;5.00;;;;;16.55;71.61;101354.41;146619;622;46016;-71
2023/05/11 10:20:10;;;;;;;;;7.00;6.33;;;;;16.57;71.79;101350.12;146622;708;46020;-72
2023/05/11 10:23:14;;;;;;;;;5.75;5.75;;;;;16.63;70.94;101355.59;146615;612;47016;-72
2023/05/11 10:26:38;;;;;;;;;10.50;7.00;;;;;16.67;71.23;101353.97;146619;569;46020;-72
2023/05/11 10:29:48;;;;;;;;;6.00;6.00;;;;;16.72;71.25;101346.25;146620;569;46012;-72
2023/05/11 10:32:45;;;;;;;;;8.50;6.75;;;;;16.77;71.14;101344.75;146621;601;46021;-72
2023/05/11 10:36:01;;;;;;;;;10.00;6.25;;;;;16.78;71.22;101336.03;146616;656;47012;-72
2023/05/11 10:39:18;;;;;;;;;8.25;6.00;;;;;16.31;70.35;101246.19;146620;660;48021;-71
2023/05/11 10:42:51;;;;;;;;;11.50;8.50;;;;;16.93;70.36;101344.44;146619;709;47016;-72
2023/05/11 10:46:23;;;;;;;;;7.50;7.25;;;;;16.98;70.38;101337.66;146623;615;46011;-71
2023/05/11 10:49:54;;;;;;;;;12.00;11.25;;;;;17.00;69.43;101340.31;146616;642;46016;-71
2023/05/11 10:53:39;;;;;;;;;7.00;7.00;;;;;17.00;69.77;101337.69;146616;623;46011;-72
2023/05/11 10:56:52;;;;;;;;;6.67;6.00;;;;;16.95;68.32;101332.31;146711;590;46012;-75
2023/05/11 11:00:46;;;;;;;;;5.33;5.00;;;;;16.98;69.39;101335.03;146614;629;47943;-69
2023/05/11 11:03:41;;;;;;;;;7.00;7.00;;;;;16.91;67.61;101326.88;146623;569;46010;-70
2023/05/11 11:06:36;;;;;;;;;59.00;45.50;;;;;16.83;68.77;101337.12;146618;579;47014;-70
2023/05/11 11:09:53;;;;;;;;;46.50;34.00;;;;;16.78;70.59;101336.03;146620;608;46020;-70
2023/05/11 11:13:22;;;;;;;;;7.75;7.00;;;;;16.76;69.33;101336.00;146611;597;46012;-70
2023/05/11 11:16:18;;;;;;;;;1.75;1.75;;;;;16.76;68.83;101332.47;146624;586;46020;-70
2023/05/11 11:20:03;;;;;;;;;10.25;10.25;;;;;16.79;68.12;101327.34;146618;601;46016;-70
2023/05/11 11:23:03;;;;;;;;;4.75;4.75;;;;;16.83;70.16;101322.28;146620;574;46020;-70
2023/05/11 11:26:14;;;;;;;;;;;;;;;;;;;;;
2023/05/11 11:29:20;;;;;;;;;6.33;4.33;;;;;16.90;69.45;101326.00;146622;644;47020;-70
2023/05/11 11:32:34;;;;;;;;;3.33;3.33;;;;;16.82;69.24;101311.72;146620;634;47012;-69
2023/05/11 11:36:07;;;;;;;;;1.67;1.67;;;;;16.74;69.14;101316.69;146623;638;46011;-70
2023/05/11 11:39:18;;;;;;;;;5.25;2.75;;;;;16.54;68.72;101304.59;146618;584;47012;-70
2023/05/11 11:42:43;;;;;;;;;4.00;3.00;;;;;16.58;69.70;101309.13;146622;583;46020;-70
2023/05/11 11:46:10;;;;;;;;;1.33;1.33;;;;;16.35;68.57;101285.63;146620;570;46012;-70
2023/05/11 11:49:13;;;;;;;;;3.33;3.00;;;;;16.56;68.18;101319.53;146623;578;46020;-70
2023/05/11 11:52:42;;;;;;;;;5.50;4.00;;;;;16.57;69.09;101313.47;146617;656;46016;-72
2023/05/11 11:56:11;;;;;;;;;4.00;3.00;;;;;16.59;69.31;101311.78;146622;566;46020;-70
2023/05/11 11:59:17;;;;;;;;;4.00;4.00;;;;;16.58;68.33;101310.00;146619;578;46017;-72
2023/05/11 12:02:56;;;;;;;;;3.33;3.00;;;;;15.96;68.22;101210.91;146621;589;46020;-70
2023/05/11 12:06:08;;;;;;;;;2.33;2.33;;;;;16.55;68.95;101315.13;146619;564;46013;-71
2023/05/11 12:09:01;;;;;;;;;5.25;3.75;;;;;16.56;67.46;101321.25;146621;614;46020;-70
2023/05/11 12:12:28;;;;;;;;;2.67;2.33;;;;;16.53;66.85;101315.91;146617;624;46016;-69
2023/05/11 12:15:50;;;;;;;;;2.67;2.67;;;;;16.17;66.79;101259.66;146622;640;46010;-71
2023/05/11 12:19:01;;;;;;;;;3.00;3.00;;;;;16.46;68.37;101308.69;146621;643;47013;-70
2023/05/11 12:22:02;;;;;;;;;6.00;4.00;;;;;16.43;68.40;101306.84;146625;633;46029;-70
2023/05/11 12:25:07;;;;;;;;;4.33;3.33;;;;;16.43;68.72;101309.44;146622;568;46014;-70
2023/05/11 12:28:25;;;;;;;;;4.67;3.00;;;;;16.39;69.05;101307.56;146623;638;46020;-70
2023/05/11 12:31:28;;;;;;;;;4.33;3.00;;;;;16.40;68.66;101305.00;146618;583;47012;-71
2023/05/11 12:34:09;;;;;;;;;3.00;3.00;;;;;16.34;66.69;101306.50;146704;566;46023;-72
2023/05/11 12:37:20;;;;;;;;;6.00;3.33;;;;;16.30;68.62;101307.22;146620;615;46012;-70
2023/05/11 12:40:29;;;;;;;;;2.33;2.33;;;;;16.30;68.51;101300.25;146625;565;46020;-72
2023/05/11 12:43:31;;;;;;;;;4.75;2.25;;;;;16.34;69.45;101309.09;146619;611;46013;-71
2023/05/11 12:46:26;;;;;;;;;6.00;2.33;;;;;16.36;69.35;101302.22;146621;569;46010;-71
2023/05/11 12:49:42;;;;;;;;;3.00;3.00;;;;;16.39;69.30;101305.84;146617;665;46017;-71
2023/05/11 12:52:29;;;;;;;;;3.00;3.00;;;;;16.33;67.68;101299.50;146701;570;46023;-71
2023/05/11 12:55:35;;;;;;;;;3.33;3.33;;;;;16.32;69.21;101298.59;146621;710;46012;-70
2023/05/11 12:58:28;;;;;;;;;4.00;3.00;;;;;16.32;69.29;101301.22;146625;594;46010;-70
2023/05/11 13:01:30;;;;;;;;;3.00;3.00;;;;;16.29;69.42;101297.56;146621;588;46017;-69
2023/05/11 13:04:44;;;;;;;;;1.67;0.00;;;;;16.31;70.85;101293.28;146624;583;46020;-67
2023/05/11 13:07:55;;;;;;;;;;;;;;;;;;;;;
2023/05/11 13:10:52;;;;;;;;;16.00;14.50;;;;;16.35;71.88;101288.25;146621;662;47010;-69
2023/05/11 13:13:47;;;;;;;;;43.25;36.75;;;;;16.39;72.42;101291.88;146611;625;46017;-69
2023/05/11 13:16:39;;;;;;;;;26.00;25.75;;;;;16.39;72.93;101292.75;146612;583;46021;-69
2023/05/11 13:19:50;;;;;;;;;;;;;;;;;;;;;
2023/05/11 13:22:53;;;;;;;;;10.00;9.00;;;;;16.40;73.10;101288.41;146616;667;46021;-69
2023/05/11 13:25:57;;;;;;;;;15.50;14.25;;;;;16.40;72.84;101288.41;146619;628;45917;-69
2023/05/11 13:29:19;;;;;;;;;13.00;8.75;;;;;16.39;73.90;101281.41;146615;657;46010;-69
2023/05/11 13:32:12;;;;;;;;;4.67;3.33;;;;;16.35;72.82;101288.25;146614;623;47016;-70
2023/05/11 13:35:18;;;;;;;;;4.67;4.67;;;;;16.25;71.98;101285.22;146622;569;46012;-71
2023/05/11 13:38:16;;;;;;;;;3.33;3.33;;;;;16.11;71.87;101288.22;146621;634;46017;-69
2023/05/11 13:41:30;;;;;;;;;4.00;3.33;;;;;15.44;71.32;101197.56;146625;569;45020;-69
2023/05/11 13:44:25;;;;;;;;;3.00;2.00;;;;;15.79;72.17;101288.69;146615;608;49916;-69
2023/05/11 13:47:33;;;;;;;;;2.33;2.33;;;;;15.62;72.17;101288.88;146622;591;46021;-71
2023/05/11 13:50:34;;;;;;;;;3.00;3.00;;;;;15.47;72.16;101291.78;146617;641;46918;-71
2023/05/11 13:53:29;;;;;;;;;3.33;2.67;;;;;15.30;72.71;101287.59;146622;646;46021;-71
2023/05/11 13:56:45;;;;;;;;;5.00;3.00;;;;;13.92;73.58;101077.28;146619;580;46016;-70
2023/05/11 13:59:46;;;;;;;;;3.33;3.00;;;;;15.03;75.05;101292.56;146624;606;46010;-70
2023/05/11 14:02:49;;;;;;;;;3.00;3.00;;;;;14.97;75.57;101293.19;146620;566;46016;-71
2023/05/11 14:05:52;;;;;;;;;3.33;3.33;;;;;14.95;75.58;101294.87;146623;687;46033;-71
2023/05/11 14:08:52;;;;;;;;;3.00;3.00;;;;;14.94;75.62;101281.72;146619;579;46014;-70
2023/05/11 14:12:06;;;;;;;;;5.00;5.00;;;;;14.98;75.90;101284.56;146620;569;46020;-70
2023/05/11 14:15:23;;;;;;;;;5.33;2.33;;;;;15.04;76.54;101281.28;146619;579;46033;-71
2023/05/11 14:18:25;;;;;;;;;3.33;2.00;;;;;15.12;76.98;101273.78;146626;614;46010;-72
2023/05/11 14:21:28;;;;;;;;;4.00;3.00;;;;;15.15;76.93;101276.53;146619;621;46017;-70
2023/05/11 14:24:35;;;;;;;;;3.67;3.67;;;;;15.16;76.69;101279.19;146622;569;46020;-70
2023/05/11 14:27:53;;;;;;;;;3.67;3.67;;;;;15.18;77.12;101276.66;146617;566;47012;-70